sensor_id;sensor_type;location;lat;lon;timestamp;temperature;humidity
28484;DHT22;15704;48.834;8.736;2022-10-16T00:01:10;16.00;99.90
28484;DHT22;15704;48.834;8.736;2022-10-16T00:03:38;15.90;99.90
28484;DHT22;15704;48.834;8.736;2022-10-16T00:06:04;16.00;99.90
28484;DHT22;15704;48.834;8.736;2022-10-16T00:08:30;15.90;99.90
28484;DHT22;15704;48.834;8.736;2022-10-16T00:11:04;16.00;99.90
28484;DHT22;15704;48.834;8.736;2022-10-16T00:13:31;16.00;99.90
28484;DHT22;15704;48.834;8.736;2022-10-16T00:15:58;16.00;99.90
28484;DHT22;15704;48.834;8.736;2022-10-16T00:18:25;16.00;99.90
28484;DHT22;15704;48.834;8.736;2022-10-16T00:20:51;16.00;99.90
28484;DHT22;15704;48.834;8.736;2022-10-16T00:23:17;16.00;99.90
28484;DHT22;15704;48.834;8.736;2022-10-16T00:25:42;16.00;99.90
28484;DHT22;15704;48.834;8.736;2022-10-16T00:28:08;15.90;99.90
28484;DHT22;15704;48.834;8.736;2022-10-16T00:30:33;16.00;99.90
28484;DHT22;15704;48.834;8.736;2022-10-16T00:33:02;15.90;99.90
28484;DHT22;15704;48.834;8.736;2022-10-16T00:35:28;16.00;99.90
28484;DHT22;15704;48.834;8.736;2022-10-16T00:37:54;16.00;99.90
28484;DHT22;15704;48.834;8.736;2022-10-16T00:40:20;16.00;99.90
28484;DHT22;15704;48.834;8.736;2022-10-16T00:42:45;16.00;99.90
28484;DHT22;15704;48.834;8.736;2022-10-16T00:45:11;16.00;99.90
28484;DHT22;15704;48.834;8.736;2022-10-16T00:47:40;16.00;99.90
28484;DHT22;15704;48.834;8.736;2022-10-16T00:50:16;16.00;99.90
28484;DHT22;15704;48.834;8.736;2022-10-16T00:52:46;16.00;99.90
28484;DHT22;15704;48.834;8.736;2022-10-16T00:55:14;16.00;99.90
28484;DHT22;15704;48.834;8.736;2022-10-16T00:57:40;16.00;99.90
28484;DHT22;15704;48.834;8.736;2022-10-16T01:00:08;16.00;99.90
28484;DHT22;15704;48.834;8.736;2022-10-16T01:02:34;16.00;99.90
28484;DHT22;15704;48.834;8.736;2022-10-16T01:05:01;16.00;99.90
28484;DHT22;15704;48.834;8.736;2022-10-16T01:13:34;16.00;99.90
28484;DHT22;15704;48.834;8.736;2022-10-16T01:18:46;16.00;99.90
28484;DHT22;15704;48.834;8.736;2022-10-16T01:21:22;16.00;99.90
28484;DHT22;15704;48.834;8.736;2022-10-16T01:32:16;16.00;99.90
28484;DHT22;15704;48.834;8.736;2022-10-16T01:35:04;16.00;99.90
28484;DHT22;15704;48.834;8.736;2022-10-16T01:37:35;16.00;99.90
28484;DHT22;15704;48.834;8.736;2022-10-16T01:40:06;16.00;99.90
28484;DHT22;15704;48.834;8.736;2022-10-16T01:42:42;16.00;99.90
28484;DHT22;15704;48.834;8.736;2022-10-16T01:45:11;16.00;99.90
28484;DHT22;15704;48.834;8.736;2022-10-16T01:47:39;16.00;99.90
28484;DHT22;15704;48.834;8.736;2022-10-16T01:50:07;16.00;99.90
28484;DHT22;15704;48.834;8.736;2022-10-16T01:52:37;16.00;99.90
28484;DHT22;15704;48.834;8.736;2022-10-16T01:55:06;16.00;99.90
28484;DHT22;15704;48.834;8.736;2022-10-16T01:57:36;16.00;99.90
28484;DHT22;15704;48.834;8.736;2022-10-16T02:00:09;16.00;99.90
28484;DHT22;15704;48.834;8.736;2022-10-16T02:02:35;16.00;99.90
28484;DHT22;15704;48.834;8.736;2022-10-16T02:05:08;16.00;99.90
28484;DHT22;15704;48.834;8.736;2022-10-16T02:07:36;16.00;99.90
28484;DHT22;15704;48.834;8.736;2022-10-16T02:10:01;16.00;99.90
28484;DHT22;15704;48.834;8.736;2022-10-16T02:12:30;16.00;99.90
28484;DHT22;15704;48.834;8.736;2022-10-16T02:14:56;16.00;99.90
28484;DHT22;15704;48.834;8.736;2022-10-16T02:17:23;16.00;99.90
28484;DHT22;15704;48.834;8.736;2022-10-16T02:19:51;16.00;99.90
28484;DHT22;15704;48.834;8.736;2022-10-16T02:25:05;16.00;99.90
28484;DHT22;15704;48.834;8.736;2022-10-16T02:27:52;16.00;99.90
28484;DHT22;15704;48.834;8.736;2022-10-16T02:30:20;16.00;99.90
28484;DHT22;15704;48.834;8.736;2022-10-16T02:32:47;16.00;99.90
28484;DHT22;15704;48.834;8.736;2022-10-16T02:35:15;16.00;99.90
28484;DHT22;15704;48.834;8.736;2022-10-16T02:37:42;15.90;99.90
28484;DHT22;15704;48.834;8.736;2022-10-16T02:40:09;15.90;99.90
28484;DHT22;15704;48.834;8.736;2022-10-16T02:42:38;15.90;99.90
28484;DHT22;15704;48.834;8.736;2022-10-16T02:45:05;16.00;99.90
28484;DHT22;15704;48.834;8.736;2022-10-16T02:47:31;16.00;99.90
28484;DHT22;15704;48.834;8.736;2022-10-16T02:49:57;16.00;99.90
28484;DHT22;15704;48.834;8.736;2022-10-16T02:52:22;16.00;99.90
28484;DHT22;15704;48.834;8.736;2022-10-16T02:54:48;15.90;99.90
28484;DHT22;15704;48.834;8.736;2022-10-16T02:57:14;16.00;99.90
28484;DHT22;15704;48.834;8.736;2022-10-16T02:59:39;16.00;99.90
28484;DHT22;15704;48.834;8.736;2022-10-16T03:02:05;16.00;99.90
28484;DHT22;15704;48.834;8.736;2022-10-16T03:04:30;15.90;99.90
28484;DHT22;15704;48.834;8.736;2022-10-16T03:06:56;15.90;99.90
28484;DHT22;15704;48.834;8.736;2022-10-16T03:09:22;15.90;99.90
28484;DHT22;15704;48.834;8.736;2022-10-16T03:11:47;15.90;99.90
28484;DHT22;15704;48.834;8.736;2022-10-16T03:14:13;15.90;99.90
28484;DHT22;15704;48.834;8.736;2022-10-16T03:16:39;15.90;99.90
28484;DHT22;15704;48.834;8.736;2022-10-16T03:19:05;15.90;99.90
28484;DHT22;15704;48.834;8.736;2022-10-16T03:21:30;15.90;99.90
28484;DHT22;15704;48.834;8.736;2022-10-16T03:23:56;15.90;99.90
28484;DHT22;15704;48.834;8.736;2022-10-16T03:26:21;15.90;99.90
28484;DHT22;15704;48.834;8.736;2022-10-16T03:28:47;15.90;99.90
28484;DHT22;15704;48.834;8.736;2022-10-16T03:31:12;15.90;99.90
28484;DHT22;15704;48.834;8.736;2022-10-16T03:33:38;15.90;99.90
28484;DHT22;15704;48.834;8.736;2022-10-16T03:36:04;15.90;99.90
28484;DHT22;15704;48.834;8.736;2022-10-16T03:38:29;15.90;99.90
28484;DHT22;15704;48.834;8.736;2022-10-16T03:40:55;15.90;99.90
28484;DHT22;15704;48.834;8.736;2022-10-16T03:43:20;15.90;99.90
28484;DHT22;15704;48.834;8.736;2022-10-16T03:45:46;15.90;99.90
28484;DHT22;15704;48.834;8.736;2022-10-16T03:48:11;15.90;99.90
28484;DHT22;15704;48.834;8.736;2022-10-16T03:50:37;15.90;99.90
28484;DHT22;15704;48.834;8.736;2022-10-16T03:53:03;15.90;99.90
28484;DHT22;15704;48.834;8.736;2022-10-16T03:55:29;15.90;99.90
28484;DHT22;15704;48.834;8.736;2022-10-16T03:57:54;15.90;99.90
28484;DHT22;15704;48.834;8.736;2022-10-16T04:00:20;15.90;99.90
28484;DHT22;15704;48.834;8.736;2022-10-16T04:02:45;15.90;99.90
28484;DHT22;15704;48.834;8.736;2022-10-16T04:05:11;15.90;99.90
28484;DHT22;15704;48.834;8.736;2022-10-16T04:07:39;15.90;99.90
28484;DHT22;15704;48.834;8.736;2022-10-16T04:10:05;15.90;99.90
28484;DHT22;15704;48.834;8.736;2022-10-16T04:12:31;15.80;99.90
28484;DHT22;15704;48.834;8.736;2022-10-16T04:14:56;15.90;99.90
28484;DHT22;15704;48.834;8.736;2022-10-16T04:17:22;15.90;99.90
28484;DHT22;15704;48.834;8.736;2022-10-16T04:19:48;15.90;99.90
28484;DHT22;15704;48.834;8.736;2022-10-16T04:22:13;15.90;99.90
28484;DHT22;15704;48.834;8.736;2022-10-16T04:24:39;15.80;99.90
28484;DHT22;15704;48.834;8.736;2022-10-16T04:27:04;15.90;99.90
28484;DHT22;15704;48.834;8.736;2022-10-16T04:29:30;15.90;99.90
28484;DHT22;15704;48.834;8.736;2022-10-16T04:31:55;15.90;99.90
28484;DHT22;15704;48.834;8.736;2022-10-16T04:34:21;15.90;99.90
28484;DHT22;15704;48.834;8.736;2022-10-16T04:36:48;15.90;99.90
28484;DHT22;15704;48.834;8.736;2022-10-16T04:39:16;15.90;99.90
28484;DHT22;15704;48.834;8.736;2022-10-16T04:41:42;15.90;99.90
28484;DHT22;15704;48.834;8.736;2022-10-16T04:44:07;15.90;99.90
28484;DHT22;15704;48.834;8.736;2022-10-16T04:46:33;15.90;99.90
28484;DHT22;15704;48.834;8.736;2022-10-16T04:48:59;16.00;99.90
28484;DHT22;15704;48.834;8.736;2022-10-16T04:51:25;15.90;99.90
28484;DHT22;15704;48.834;8.736;2022-10-16T04:53:51;15.90;99.90
28484;DHT22;15704;48.834;8.736;2022-10-16T04:56:17;15.90;99.90
28484;DHT22;15704;48.834;8.736;2022-10-16T04:58:42;15.90;99.90
28484;DHT22;15704;48.834;8.736;2022-10-16T05:01:08;15.90;99.90
28484;DHT22;15704;48.834;8.736;2022-10-16T05:03:33;15.90;99.90
28484;DHT22;15704;48.834;8.736;2022-10-16T05:05:59;15.90;99.90
28484;DHT22;15704;48.834;8.736;2022-10-16T05:08:25;15.80;99.90
28484;DHT22;15704;48.834;8.736;2022-10-16T05:10:50;15.90;99.90
28484;DHT22;15704;48.834;8.736;2022-10-16T05:13:16;15.90;99.90
28484;DHT22;15704;48.834;8.736;2022-10-16T05:15:41;15.90;99.90
28484;DHT22;15704;48.834;8.736;2022-10-16T05:18:08;15.90;99.90
28484;DHT22;15704;48.834;8.736;2022-10-16T05:20:34;15.80;99.90
28484;DHT22;15704;48.834;8.736;2022-10-16T05:23:00;15.80;99.90
28484;DHT22;15704;48.834;8.736;2022-10-16T05:25:25;15.80;99.90
28484;DHT22;15704;48.834;8.736;2022-10-16T05:27:51;15.90;99.90
28484;DHT22;15704;48.834;8.736;2022-10-16T05:30:17;15.90;99.90
28484;DHT22;15704;48.834;8.736;2022-10-16T05:32:49;15.80;99.90
28484;DHT22;15704;48.834;8.736;2022-10-16T05:35:17;15.90;99.90
28484;DHT22;15704;48.834;8.736;2022-10-16T05:37:42;15.80;99.90
28484;DHT22;15704;48.834;8.736;2022-10-16T05:40:09;15.80;99.90
28484;DHT22;15704;48.834;8.736;2022-10-16T05:42:35;15.80;99.90
28484;DHT22;15704;48.834;8.736;2022-10-16T05:45:00;15.90;99.90
28484;DHT22;15704;48.834;8.736;2022-10-16T05:47:26;15.90;99.90
28484;DHT22;15704;48.834;8.736;2022-10-16T05:49:52;15.90;99.90
28484;DHT22;15704;48.834;8.736;2022-10-16T05:52:17;15.80;99.90
28484;DHT22;15704;48.834;8.736;2022-10-16T05:54:43;15.90;99.90
28484;DHT22;15704;48.834;8.736;2022-10-16T05:57:08;15.80;99.90
28484;DHT22;15704;48.834;8.736;2022-10-16T05:59:34;15.80;99.90
28484;DHT22;15704;48.834;8.736;2022-10-16T06:02:00;15.90;99.90
28484;DHT22;15704;48.834;8.736;2022-10-16T06:04:25;15.90;99.90
28484;DHT22;15704;48.834;8.736;2022-10-16T06:06:51;15.80;99.90
28484;DHT22;15704;48.834;8.736;2022-10-16T06:09:16;15.90;99.90
28484;DHT22;15704;48.834;8.736;2022-10-16T06:11:42;15.80;99.90
28484;DHT22;15704;48.834;8.736;2022-10-16T06:14:08;15.90;99.90
28484;DHT22;15704;48.834;8.736;2022-10-16T06:16:35;15.90;99.90
28484;DHT22;15704;48.834;8.736;2022-10-16T06:19:02;15.90;99.90
28484;DHT22;15704;48.834;8.736;2022-10-16T06:21:29;15.90;99.90
28484;DHT22;15704;48.834;8.736;2022-10-16T06:23:56;16.00;99.90
28484;DHT22;15704;48.834;8.736;2022-10-16T06:26:25;16.00;99.90
28484;DHT22;15704;48.834;8.736;2022-10-16T06:28:51;15.90;99.90
28484;DHT22;15704;48.834;8.736;2022-10-16T06:31:17;16.00;99.90
28484;DHT22;15704;48.834;8.736;2022-10-16T06:33:42;16.00;99.90
28484;DHT22;15704;48.834;8.736;2022-10-16T06:36:13;16.00;99.90
28484;DHT22;15704;48.834;8.736;2022-10-16T06:38:40;16.00;99.90
28484;DHT22;15704;48.834;8.736;2022-10-16T06:41:07;16.10;99.90
28484;DHT22;15704;48.834;8.736;2022-10-16T06:43:33;16.00;99.90
28484;DHT22;15704;48.834;8.736;2022-10-16T06:46:03;16.10;99.90
28484;DHT22;15704;48.834;8.736;2022-10-16T06:48:29;16.10;99.90
28484;DHT22;15704;48.834;8.736;2022-10-16T06:51:06;16.10;99.90
28484;DHT22;15704;48.834;8.736;2022-10-16T06:53:34;16.10;99.90
28484;DHT22;15704;48.834;8.736;2022-10-16T06:58:45;16.10;99.90
28484;DHT22;15704;48.834;8.736;2022-10-16T07:01:11;16.20;99.90
28484;DHT22;15704;48.834;8.736;2022-10-16T07:03:38;16.10;99.90
28484;DHT22;15704;48.834;8.736;2022-10-16T07:06:05;16.10;99.90
28484;DHT22;15704;48.834;8.736;2022-10-16T07:08:36;16.10;99.90
28484;DHT22;15704;48.834;8.736;2022-10-16T07:11:05;16.20;99.90
28484;DHT22;15704;48.834;8.736;2022-10-16T07:13:33;16.10;99.90
28484;DHT22;15704;48.834;8.736;2022-10-16T07:16:05;16.20;99.90
28484;DHT22;15704;48.834;8.736;2022-10-16T07:18:31;16.10;99.90
28484;DHT22;15704;48.834;8.736;2022-10-16T07:21:07;16.20;99.90
28484;DHT22;15704;48.834;8.736;2022-10-16T07:23:32;16.20;99.90
28484;DHT22;15704;48.834;8.736;2022-10-16T07:25:58;16.20;99.90
28484;DHT22;15704;48.834;8.736;2022-10-16T07:28:23;16.20;99.90
28484;DHT22;15704;48.834;8.736;2022-10-16T07:30:49;16.30;99.90
28484;DHT22;15704;48.834;8.736;2022-10-16T07:33:14;16.40;99.90
28484;DHT22;15704;48.834;8.736;2022-10-16T07:35:51;16.50;99.90
28484;DHT22;15704;48.834;8.736;2022-10-16T07:38:17;16.60;99.90
28484;DHT22;15704;48.834;8.736;2022-10-16T07:40:43;16.70;99.90
28484;DHT22;15704;48.834;8.736;2022-10-16T07:43:09;16.80;99.90
28484;DHT22;15704;48.834;8.736;2022-10-16T07:45:34;16.90;99.90
28484;DHT22;15704;48.834;8.736;2022-10-16T07:48:00;16.90;99.90
28484;DHT22;15704;48.834;8.736;2022-10-16T07:50:25;17.00;99.90
28484;DHT22;15704;48.834;8.736;2022-10-16T07:52:52;17.10;99.90
28484;DHT22;15704;48.834;8.736;2022-10-16T07:55:17;17.10;99.90
28484;DHT22;15704;48.834;8.736;2022-10-16T07:57:43;17.10;99.90
28484;DHT22;15704;48.834;8.736;2022-10-16T08:00:09;17.20;99.90
28484;DHT22;15704;48.834;8.736;2022-10-16T08:02:42;17.20;99.90
28484;DHT22;15704;48.834;8.736;2022-10-16T08:05:08;17.20;99.90
28484;DHT22;15704;48.834;8.736;2022-10-16T08:07:33;17.30;99.90
28484;DHT22;15704;48.834;8.736;2022-10-16T08:09:59;17.30;99.90
28484;DHT22;15704;48.834;8.736;2022-10-16T08:12:25;17.40;99.90
28484;DHT22;15704;48.834;8.736;2022-10-16T08:14:51;17.40;99.90
28484;DHT22;15704;48.834;8.736;2022-10-16T08:17:17;17.40;99.90
28484;DHT22;15704;48.834;8.736;2022-10-16T08:19:48;17.40;99.90
28484;DHT22;15704;48.834;8.736;2022-10-16T08:22:14;17.50;99.90
28484;DHT22;15704;48.834;8.736;2022-10-16T08:24:40;17.50;99.90
28484;DHT22;15704;48.834;8.736;2022-10-16T08:27:06;17.70;99.90
28484;DHT22;15704;48.834;8.736;2022-10-16T08:29:34;17.50;99.90
28484;DHT22;15704;48.834;8.736;2022-10-16T08:31:59;17.60;99.90
28484;DHT22;15704;48.834;8.736;2022-10-16T08:34:25;17.60;99.90
28484;DHT22;15704;48.834;8.736;2022-10-16T08:36:53;17.60;99.90
28484;DHT22;15704;48.834;8.736;2022-10-16T08:39:19;17.60;99.90
28484;DHT22;15704;48.834;8.736;2022-10-16T08:47:23;17.70;99.90
28484;DHT22;15704;48.834;8.736;2022-10-16T08:50:13;17.70;99.90
28484;DHT22;15704;48.834;8.736;2022-10-16T08:52:41;17.70;99.90
28484;DHT22;15704;48.834;8.736;2022-10-16T08:55:30;17.70;99.90
28484;DHT22;15704;48.834;8.736;2022-10-16T08:57:56;17.70;99.90
28484;DHT22;15704;48.834;8.736;2022-10-16T09:00:22;17.70;99.90
28484;DHT22;15704;48.834;8.736;2022-10-16T09:03:04;17.70;99.90
28484;DHT22;15704;48.834;8.736;2022-10-16T09:22:35;17.80;99.90
28484;DHT22;15704;48.834;8.736;2022-10-16T09:25:04;17.80;99.90
28484;DHT22;15704;48.834;8.736;2022-10-16T09:27:35;17.90;99.90
28484;DHT22;15704;48.834;8.736;2022-10-16T09:30:01;17.90;99.90
28484;DHT22;15704;48.834;8.736;2022-10-16T09:32:28;18.00;99.90
28484;DHT22;15704;48.834;8.736;2022-10-16T09:34:55;18.00;99.90
28484;DHT22;15704;48.834;8.736;2022-10-16T09:37:24;18.00;99.90
28484;DHT22;15704;48.834;8.736;2022-10-16T09:39:54;18.10;99.90
28484;DHT22;15704;48.834;8.736;2022-10-16T09:42:22;18.10;99.90
28484;DHT22;15704;48.834;8.736;2022-10-16T09:44:51;18.10;99.90
28484;DHT22;15704;48.834;8.736;2022-10-16T09:47:20;18.20;99.90
28484;DHT22;15704;48.834;8.736;2022-10-16T09:52:26;18.30;99.90
28484;DHT22;15704;48.834;8.736;2022-10-16T09:57:23;18.40;99.90
28484;DHT22;15704;48.834;8.736;2022-10-16T09:59:50;18.40;99.90
28484;DHT22;15704;48.834;8.736;2022-10-16T10:02:19;18.40;99.90
28484;DHT22;15704;48.834;8.736;2022-10-16T10:04:53;18.40;99.90
28484;DHT22;15704;48.834;8.736;2022-10-16T10:07:26;18.40;99.90
28484;DHT22;15704;48.834;8.736;2022-10-16T10:09:53;18.40;99.90
28484;DHT22;15704;48.834;8.736;2022-10-16T10:12:27;18.30;99.90
28484;DHT22;15704;48.834;8.736;2022-10-16T10:14:58;18.30;99.90
28484;DHT22;15704;48.834;8.736;2022-10-16T10:17:29;18.20;99.90
28484;DHT22;15704;48.834;8.736;2022-10-16T10:22:25;18.20;99.90
28484;DHT22;15704;48.834;8.736;2022-10-16T10:27:25;18.20;99.90
28484;DHT22;15704;48.834;8.736;2022-10-16T10:30:13;18.20;99.90
28484;DHT22;15704;48.834;8.736;2022-10-16T10:38:11;18.20;99.90
28484;DHT22;15704;48.834;8.736;2022-10-16T10:40:56;18.10;99.90
28484;DHT22;15704;48.834;8.736;2022-10-16T10:46:29;18.10;99.90
28484;DHT22;15704;48.834;8.736;2022-10-16T10:54:37;18.00;99.90
28484;DHT22;15704;48.834;8.736;2022-10-16T11:02:41;18.00;99.90
28484;DHT22;15704;48.834;8.736;2022-10-16T11:05:45;18.10;99.90
28484;DHT22;15704;48.834;8.736;2022-10-16T11:11:01;18.30;99.90
28484;DHT22;15704;48.834;8.736;2022-10-16T11:16:24;18.50;99.90
28484;DHT22;15704;48.834;8.736;2022-10-16T11:19:18;18.60;99.90
28484;DHT22;15704;48.834;8.736;2022-10-16T11:22:14;18.70;99.90
28484;DHT22;15704;48.834;8.736;2022-10-16T11:24:53;18.70;99.90
28484;DHT22;15704;48.834;8.736;2022-10-16T11:28:08;18.80;99.90
28484;DHT22;15704;48.834;8.736;2022-10-16T11:30:22;18.90;99.90
28484;DHT22;15704;48.834;8.736;2022-10-16T11:41:15;19.00;99.90
28484;DHT22;15704;48.834;8.736;2022-10-16T11:43:49;19.00;99.90
28484;DHT22;15704;48.834;8.736;2022-10-16T11:46:20;19.00;99.90
28484;DHT22;15704;48.834;8.736;2022-10-16T11:48:54;19.00;99.90
28484;DHT22;15704;48.834;8.736;2022-10-16T11:51:35;19.00;99.90
28484;DHT22;15704;48.834;8.736;2022-10-16T11:54:08;18.90;99.90
28484;DHT22;15704;48.834;8.736;2022-10-16T11:56:41;18.90;99.90
28484;DHT22;15704;48.834;8.736;2022-10-16T12:04:41;19.00;99.90
28484;DHT22;15704;48.834;8.736;2022-10-16T12:07:19;19.00;99.90
28484;DHT22;15704;48.834;8.736;2022-10-16T12:09:47;18.90;99.90
28484;DHT22;15704;48.834;8.736;2022-10-16T12:12:28;18.90;99.90
28484;DHT22;15704;48.834;8.736;2022-10-16T12:17:48;19.00;99.90
28484;DHT22;15704;48.834;8.736;2022-10-16T12:23:00;19.00;99.90
28484;DHT22;15704;48.834;8.736;2022-10-16T12:27:58;19.00;99.90
28484;DHT22;15704;48.834;8.736;2022-10-16T12:30:26;19.00;99.90
28484;DHT22;15704;48.834;8.736;2022-10-16T12:33:03;19.00;99.90
28484;DHT22;15704;48.834;8.736;2022-10-16T12:35:33;18.90;99.90
28484;DHT22;15704;48.834;8.736;2022-10-16T12:38:17;19.00;99.90
28484;DHT22;15704;48.834;8.736;2022-10-16T12:40:44;19.00;99.90
28484;DHT22;15704;48.834;8.736;2022-10-16T12:43:13;19.00;99.90
28484;DHT22;15704;48.834;8.736;2022-10-16T12:45:59;19.00;99.90
28484;DHT22;15704;48.834;8.736;2022-10-16T12:48:25;19.00;99.90
28484;DHT22;15704;48.834;8.736;2022-10-16T12:50:50;19.00;99.90
28484;DHT22;15704;48.834;8.736;2022-10-16T12:53:24;19.00;99.90
28484;DHT22;15704;48.834;8.736;2022-10-16T12:56:51;19.00;99.90
28484;DHT22;15704;48.834;8.736;2022-10-16T12:59:09;18.90;99.90
28484;DHT22;15704;48.834;8.736;2022-10-16T13:07:25;18.90;99.90
28484;DHT22;15704;48.834;8.736;2022-10-16T13:13:15;18.90;99.90
28484;DHT22;15704;48.834;8.736;2022-10-16T13:30:08;19.00;99.90
28484;DHT22;15704;48.834;8.736;2022-10-16T13:32:34;18.80;99.90
28484;DHT22;15704;48.834;8.736;2022-10-16T13:35:00;18.70;99.90
28484;DHT22;15704;48.834;8.736;2022-10-16T13:37:26;18.60;99.90
28484;DHT22;15704;48.834;8.736;2022-10-16T13:40:08;18.50;99.90
28484;DHT22;15704;48.834;8.736;2022-10-16T13:42:42;18.40;99.90
28484;DHT22;15704;48.834;8.736;2022-10-16T13:45:18;18.40;99.90
28484;DHT22;15704;48.834;8.736;2022-10-16T13:47:43;18.40;99.90
28484;DHT22;15704;48.834;8.736;2022-10-16T13:50:12;18.40;99.90
28484;DHT22;15704;48.834;8.736;2022-10-16T13:52:38;18.30;99.90
28484;DHT22;15704;48.834;8.736;2022-10-16T13:55:13;18.30;99.90
28484;DHT22;15704;48.834;8.736;2022-10-16T13:57:40;18.30;99.90
28484;DHT22;15704;48.834;8.736;2022-10-16T14:00:26;18.20;99.90
28484;DHT22;15704;48.834;8.736;2022-10-16T14:03:02;18.20;99.90
28484;DHT22;15704;48.834;8.736;2022-10-16T14:05:28;18.10;99.90
28484;DHT22;15704;48.834;8.736;2022-10-16T14:07:54;18.10;99.90
28484;DHT22;15704;48.834;8.736;2022-10-16T14:10:25;18.10;99.90
28484;DHT22;15704;48.834;8.736;2022-10-16T14:13:04;18.10;99.90
28484;DHT22;15704;48.834;8.736;2022-10-16T14:15:32;18.00;99.90
28484;DHT22;15704;48.834;8.736;2022-10-16T14:17:59;18.00;99.90
28484;DHT22;15704;48.834;8.736;2022-10-16T14:20:29;18.00;99.90
28484;DHT22;15704;48.834;8.736;2022-10-16T14:23:23;18.00;99.90
28484;DHT22;15704;48.834;8.736;2022-10-16T14:25:49;18.00;99.90
28484;DHT22;15704;48.834;8.736;2022-10-16T14:28:21;18.00;99.90
28484;DHT22;15704;48.834;8.736;2022-10-16T14:30:55;18.00;99.90
28484;DHT22;15704;48.834;8.736;2022-10-16T14:38:37;18.10;99.90
28484;DHT22;15704;48.834;8.736;2022-10-16T14:41:03;18.20;99.90
28484;DHT22;15704;48.834;8.736;2022-10-16T14:43:33;18.20;99.90
28484;DHT22;15704;48.834;8.736;2022-10-16T14:45:59;18.20;99.90
28484;DHT22;15704;48.834;8.736;2022-10-16T14:48:26;18.20;99.90
28484;DHT22;15704;48.834;8.736;2022-10-16T14:50:52;18.10;99.90
28484;DHT22;15704;48.834;8.736;2022-10-16T14:53:18;18.10;99.90
28484;DHT22;15704;48.834;8.736;2022-10-16T14:55:44;18.10;99.90
28484;DHT22;15704;48.834;8.736;2022-10-16T15:00:39;18.00;99.90
28484;DHT22;15704;48.834;8.736;2022-10-16T15:03:04;18.00;99.90
28484;DHT22;15704;48.834;8.736;2022-10-16T15:05:30;18.00;99.90
28484;DHT22;15704;48.834;8.736;2022-10-16T15:07:57;18.00;99.90
28484;DHT22;15704;48.834;8.736;2022-10-16T15:10:24;18.00;99.90
28484;DHT22;15704;48.834;8.736;2022-10-16T15:12:51;18.00;99.90
28484;DHT22;15704;48.834;8.736;2022-10-16T15:17:55;17.90;99.90
28484;DHT22;15704;48.834;8.736;2022-10-16T15:20:23;17.90;99.90
28484;DHT22;15704;48.834;8.736;2022-10-16T15:22:49;17.90;99.90
28484;DHT22;15704;48.834;8.736;2022-10-16T15:28:00;17.90;99.90
28484;DHT22;15704;48.834;8.736;2022-10-16T15:30:27;17.90;99.90
28484;DHT22;15704;48.834;8.736;2022-10-16T15:32:52;18.00;99.90
28484;DHT22;15704;48.834;8.736;2022-10-16T15:35:18;17.90;99.90
28484;DHT22;15704;48.834;8.736;2022-10-16T15:37:44;17.90;99.90
28484;DHT22;15704;48.834;8.736;2022-10-16T15:40:10;17.90;99.90
28484;DHT22;15704;48.834;8.736;2022-10-16T15:42:36;17.90;99.90
28484;DHT22;15704;48.834;8.736;2022-10-16T15:45:01;17.90;99.90
28484;DHT22;15704;48.834;8.736;2022-10-16T15:47:28;17.90;99.90
28484;DHT22;15704;48.834;8.736;2022-10-16T15:49:54;17.80;99.90
28484;DHT22;15704;48.834;8.736;2022-10-16T15:52:19;17.80;99.90
28484;DHT22;15704;48.834;8.736;2022-10-16T15:54:45;17.70;99.90
28484;DHT22;15704;48.834;8.736;2022-10-16T15:57:10;17.70;99.90
28484;DHT22;15704;48.834;8.736;2022-10-16T15:59:36;17.70;99.90
28484;DHT22;15704;48.834;8.736;2022-10-16T16:02:01;17.70;99.90
28484;DHT22;15704;48.834;8.736;2022-10-16T16:04:29;17.70;99.90
28484;DHT22;15704;48.834;8.736;2022-10-16T16:06:55;17.60;99.90
28484;DHT22;15704;48.834;8.736;2022-10-16T16:09:21;17.60;99.90
28484;DHT22;15704;48.834;8.736;2022-10-16T16:11:47;17.60;99.90
28484;DHT22;15704;48.834;8.736;2022-10-16T16:14:13;17.60;99.90
28484;DHT22;15704;48.834;8.736;2022-10-16T16:16:39;17.60;99.90
28484;DHT22;15704;48.834;8.736;2022-10-16T16:19:05;17.60;99.90
28484;DHT22;15704;48.834;8.736;2022-10-16T16:21:33;17.50;99.90
28484;DHT22;15704;48.834;8.736;2022-10-16T16:23:59;17.50;99.90
28484;DHT22;15704;48.834;8.736;2022-10-16T16:26:25;17.50;99.90
28484;DHT22;15704;48.834;8.736;2022-10-16T16:28:52;17.50;99.90
28484;DHT22;15704;48.834;8.736;2022-10-16T16:31:17;17.40;99.90
28484;DHT22;15704;48.834;8.736;2022-10-16T16:33:43;17.40;99.90
28484;DHT22;15704;48.834;8.736;2022-10-16T16:36:09;17.40;99.90
28484;DHT22;15704;48.834;8.736;2022-10-16T16:38:34;17.40;99.90
28484;DHT22;15704;48.834;8.736;2022-10-16T16:41:14;17.40;99.90
28484;DHT22;15704;48.834;8.736;2022-10-16T16:43:40;17.40;99.90
28484;DHT22;15704;48.834;8.736;2022-10-16T16:46:05;17.40;99.90
28484;DHT22;15704;48.834;8.736;2022-10-16T16:48:31;17.30;99.90
28484;DHT22;15704;48.834;8.736;2022-10-16T16:51:05;17.30;99.90
28484;DHT22;15704;48.834;8.736;2022-10-16T16:53:33;17.30;99.90
28484;DHT22;15704;48.834;8.736;2022-10-16T16:56:04;17.30;99.90
28484;DHT22;15704;48.834;8.736;2022-10-16T16:58:30;17.20;99.90
28484;DHT22;15704;48.834;8.736;2022-10-16T17:00:56;17.20;99.90
28484;DHT22;15704;48.834;8.736;2022-10-16T17:03:29;17.20;99.90
28484;DHT22;15704;48.834;8.736;2022-10-16T17:06:07;17.20;99.90
28484;DHT22;15704;48.834;8.736;2022-10-16T17:08:36;17.20;99.90
28484;DHT22;15704;48.834;8.736;2022-10-16T17:11:03;17.20;99.90
28484;DHT22;15704;48.834;8.736;2022-10-16T17:13:32;17.20;99.90
28484;DHT22;15704;48.834;8.736;2022-10-16T17:16:00;17.10;99.90
28484;DHT22;15704;48.834;8.736;2022-10-16T17:18:26;17.20;99.90
28484;DHT22;15704;48.834;8.736;2022-10-16T17:20:52;17.10;99.90
28484;DHT22;15704;48.834;8.736;2022-10-16T17:23:18;17.10;99.90
28484;DHT22;15704;48.834;8.736;2022-10-16T17:25:44;17.10;99.90
28484;DHT22;15704;48.834;8.736;2022-10-16T17:28:11;17.10;99.90
28484;DHT22;15704;48.834;8.736;2022-10-16T17:30:40;17.00;99.90
28484;DHT22;15704;48.834;8.736;2022-10-16T17:33:08;17.10;99.90
28484;DHT22;15704;48.834;8.736;2022-10-16T17:35:39;17.10;99.90
28484;DHT22;15704;48.834;8.736;2022-10-16T17:38:05;17.00;99.90
28484;DHT22;15704;48.834;8.736;2022-10-16T17:40:30;17.00;99.90
28484;DHT22;15704;48.834;8.736;2022-10-16T17:42:56;17.00;99.90
28484;DHT22;15704;48.834;8.736;2022-10-16T17:45:22;17.00;99.90
28484;DHT22;15704;48.834;8.736;2022-10-16T17:47:47;17.00;99.90
28484;DHT22;15704;48.834;8.736;2022-10-16T17:50:13;17.00;99.90
28484;DHT22;15704;48.834;8.736;2022-10-16T17:52:39;16.90;99.90
28484;DHT22;15704;48.834;8.736;2022-10-16T17:55:05;16.90;99.90
28484;DHT22;15704;48.834;8.736;2022-10-16T17:57:31;16.90;99.90